• Join FlightAware (Why Join?)
  • Login
  • US Flag 
04:28PM EDT


 

Airport Tracker/Info


-or-


 

Live Flight TrackerFlight Track Log ✈ KAP188 ✈ 12-Jul-2013 ✈ KBOS - KACK

Flight Track Log - Related Links

Times and Time Zones

All times are in EDT time to prevent confusion due to time zone crossing. See the KAP188 flight status page for this flight to view local times or setup timezone preferences in your user account.

Time Position Orientation Groundspeed Altitude Reporting Facility
EDT Latitude Longitude Course Direction KTS MPH feet Rate Location/Type
12:58PM 42.3333 -70.9333 147° Southeast 120 138 1,500  Level KA90
12:59PM 42.3000 -70.9000 144° Southeast 118 136 2,000 420 Climbing KA90
01:00PM 42.2833 -70.8667 124° Southeast 121 139 2,400 480 Climbing KA90
01:01PM 42.2667 -70.8333 124° Southeast 119 137 3,000 540 Climbing KA90
01:02PM 42.2333 -70.8000 143° Southeast 118 136 3,500 480 Climbing KA90
01:03PM 42.2080 -70.8719 147° Southeast  Level Estimated
01:03PM 42.2167 -70.7667 124° Southeast 121 139 4,000  Level KA90
01:04PM 42.2000 -70.7333 124° Southeast 117 135 4,500 480 Climbing KA90
01:06PM 42.1598 -70.7043 152° Southeast  Level Estimated
01:13PM 41.9973 -70.5874 152° Southeast  Level Estimated
01:14PM 41.9741 -70.5707 152° Southeast  Level Estimated
01:15PM 41.9509 -70.5541 152° Southeast  Level Estimated
01:16PM 41.9277 -70.5374 152° Southeast  Level Estimated
01:17PM 41.9044 -70.5208 152° Southeast  Level Estimated
01:18PM 41.8812 -70.5042 152° Southeast  Level Estimated
01:19PM 41.8580 -70.4876 152° Southeast  Level Estimated
01:20PM 41.8348 -70.4710 152° Southeast  Level Estimated
01:21PM 41.8115 -70.4545 152° Southeast  Level Estimated
01:22PM 41.7883 -70.4379 152° Southeast  Level Estimated
01:23PM 41.7650 -70.4214 152° Southeast  Level Estimated
01:24PM 41.7418 -70.4048 152° Southeast  Level Estimated
01:25PM 41.7186 -70.3883 152° Southeast  Level Estimated
01:26PM 41.6953 -70.3718 152° Southeast  Level Estimated
01:27PM 41.6721 -70.3553 152° Southeast  Level Estimated
01:28PM 41.6488 -70.3388 152° Southeast  Level Estimated
01:29PM 41.6255 -70.3223 152° Southeast  Level Estimated
01:30PM 41.6023 -70.3059 152° Southeast  Level Estimated
01:31PM 41.5790 -70.2894 152° Southeast  Level Estimated
01:32PM 41.5558 -70.2730 152° Southeast  Level Estimated
01:33PM 41.5325 -70.2566 152° Southeast  Level Estimated
01:34PM 41.5092 -70.2401 152° Southeast  Level Estimated
01:35PM 41.4860 -70.2237 152° Southeast  Level Estimated
01:36PM 41.4627 -70.2073 152° Southeast  Level Estimated
01:37PM 41.4394 -70.1910 152° Southeast  Level Estimated
01:38PM 41.4161 -70.1746 152° Southeast  Level Estimated
01:39PM 41.3929 -70.1582 152° Southeast  Level Estimated
01:40PM 41.3696 -70.1419 152° Southeast  Level Estimated
01:41PM 41.3463 -70.1256 152° Southeast  Level Estimated
01:42PM 41.3230 -70.1092 152° Southeast  Level Estimated
01:43PM 41.2997 -70.0929 152° Southeast  Level Estimated
01:44PM 41.2765 -70.0766 152° Southeast  Level Estimated
01:45PM 41.2532 -70.0603 152° Southeast  Level Estimated
01:46PM 41.2531 -70.0603 152° Southeast  Level Estimated
01:47PM 41.2531 -70.0603 72° East  Level Estimated
01:48PM 41.2531 -70.0603 72° East  Level Estimated